Time;durP1;ratioP1;P1;durP2;ratioP2;P2;SDS_P1;SDS_P2;PMS_P1;PMS_P2;Temp;Humidity;BMP_temperature;BMP_pressure;BME280_temperature;BME280_humidity;BME280_pressure;Samples;Min_cycle;Max_cycle;Signal;HPM_P1;HPM_P2
2022/06/06 00:01:39;;;;;;;6.70;4.60;;;;;;;;;;5045005;28;20494;-69
2022/06/06 00:04:05;;;;;;;6.70;4.90;;;;;;;18.79;nan;100287.78;5044455;28;20033;-68
2022/06/06 00:06:30;;;;;;;8.23;4.97;;;;;;;18.83;nan;100293.34;5057690;28;20482;-70
2022/06/06 00:08:57;;;;;;;5.95;4.38;;;;;;;18.71;nan;100280.38;5054309;28;20036;-69
2022/06/06 00:11:23;;;;;;;6.88;4.78;;;;;;;18.68;nan;100291.63;5045236;28;20530;-69
2022/06/06 00:13:49;;;;;;;8.57;4.72;;;;;;;18.69;nan;100277.97;5022023;28;20061;-69
2022/06/06 00:16:14;;;;;;;7.03;4.68;;;;;;;;;;5024910;28;20111;-69
2022/06/06 00:18:39;;;;;;;12.67;4.97;;;;;;;;;;5041600;28;20571;-69
2022/06/06 00:21:08;;;;;;;5.60;4.37;;;;;;;18.70;nan;100265.47;5022908;28;20312;-69
2022/06/06 00:23:35;;;;;;;5.97;4.38;;;;;;;18.68;nan;100271.06;5035179;28;20270;-69
2022/06/06 00:26:01;;;;;;;5.18;4.20;;;;;;;18.58;nan;100265.00;5032360;28;20040;-69
2022/06/06 00:28:27;;;;;;;9.65;4.60;;;;;;;18.65;nan;100324.97;5050151;28;20474;-69
2022/06/06 00:30:56;;;;;;;6.20;4.20;;;;;;;;;;5019263;28;20048;-68
2022/06/06 00:36:06;;;;;;;6.68;4.55;;;;;;;;;;5045524;28;20033;-70
2022/06/06 00:38:32;;;;;;;5.97;4.27;;;;;;;18.47;nan;100229.66;5046673;28;20471;-69
2022/06/06 00:40:59;;;;;;;6.10;4.22;;;;;;;18.42;nan;100241.19;5042416;28;20282;-68
2022/06/06 00:43:24;;;;;;;6.10;4.68;;;;;;;18.45;nan;100251.28;5051679;28;20033;-67
2022/06/06 00:45:52;;;;;;;5.93;4.38;;;;;;;18.44;nan;100252.34;5046383;28;20052;-68
2022/06/06 00:48:29;;;;;;;5.20;4.10;;;;;;;18.42;nan;100259.84;5051037;28;20029;-70
2022/06/06 00:50:56;;;;;;;8.75;4.93;;;;;;;18.42;nan;100261.72;5044592;28;20384;-69
2022/06/06 00:53:25;;;;;;;5.78;4.68;;;;;;;;;;5050138;28;20059;-69
2022/06/06 00:55:56;;;;;;;7.40;4.30;;;;;;;18.37;nan;100251.88;5049073;28;20047;-69
2022/06/06 00:58:24;;;;;;;10.05;4.97;;;;;;;18.37;nan;100259.88;5024350;28;20138;-69
2022/06/06 01:00:50;;;;;;;6.25;4.55;;;;;;;18.33;nan;100272.19;5048931;28;20039;-69
2022/06/06 01:03:20;;;;;;;8.60;5.90;;;;;;;18.32;nan;100243.16;5027381;28;20044;-69
2022/06/06 01:05:46;;;;;;;;;;;;;;;18.31;nan;100245.00;5022371;28;20036;-70
2022/06/06 01:08:14;;;;;;;7.43;4.90;;;;;;;18.25;nan;100254.91;5050435;28;20309;-69
2022/06/06 01:10:40;;;;;;;6.88;4.88;;;;;;;18.26;nan;100301.03;5047241;28;20045;-69
2022/06/06 01:13:08;;;;;;;7.28;4.50;;;;;;;18.21;nan;100234.44;5041239;28;20527;-71
2022/06/06 01:15:48;;;;;;;11.40;5.25;;;;;;;18.18;nan;100237.66;5017922;28;20120;-69
2022/06/06 01:18:19;;;;;;;6.93;4.85;;;;;;;;;;5060625;28;20524;-70
2022/06/06 01:21:29;;;;;;;7.00;4.97;;;;;;;18.18;nan;100230.47;5051595;28;20048;-69
2022/06/06 01:24:15;;;;;;;7.72;4.93;;;;;;;18.13;nan;100221.72;5031313;28;20075;-69
2022/06/06 01:27:08;;;;;;;5.95;4.60;;;;;;;18.10;nan;100224.91;5030077;28;20186;-69
2022/06/06 01:29:37;;;;;;;7.18;4.70;;;;;;;18.04;nan;100213.53;5048556;28;20513;-69
2022/06/06 01:32:08;;;;;;;6.22;5.20;;;;;;;17.97;nan;100213.84;5049226;28;20114;-69
2022/06/06 01:34:37;;;;;;;8.50;5.43;;;;;;;17.91;nan;100206.16;5045485;28;20041;-68
2022/06/06 01:37:04;;;;;;;9.57;5.38;;;;;;;17.75;nan;100206.25;5053115;28;20054;-68
2022/06/06 01:39:32;;;;;;;11.48;5.88;;;;;;;17.70;nan;100211.63;5050292;28;20033;-68
2022/06/06 01:41:57;;;;;;;10.43;5.53;;;;;;;17.63;nan;100193.28;5043852;28;20074;-68
2022/06/06 01:44:56;;;;;;;8.15;5.40;;;;;;;17.59;nan;100202.09;5045500;28;20049;-68
2022/06/06 01:47:26;;;;;;;8.00;5.20;;;;;;;;;;5020449;28;20051;-68
2022/06/06 01:49:52;;;;;;;9.63;5.70;;;;;;;;;;5062392;28;20093;-68
2022/06/06 01:52:18;;;;;;;8.10;5.82;;;;;;;17.29;nan;100192.44;5050912;28;20033;-68
2022/06/06 01:54:43;;;;;;;7.80;5.43;;;;;;;17.33;nan;100226.19;5054522;28;20116;-70
2022/06/06 01:57:13;;;;;;;8.88;6.25;;;;;;;17.33;nan;100215.53;5052136;28;20048;-68
2022/06/06 01:59:38;;;;;;;;;;;;;;;17.28;nan;100210.25;5023803;28;20491;-69
2022/06/06 02:02:03;;;;;;;12.13;6.47;;;;;;;;;;5021671;28;19973;-68
2022/06/06 02:04:29;;;;;;;6.82;5.75;;;;;;;;;;5026058;28;20048;-68
2022/06/06 02:06:55;;;;;;;10.68;5.70;;;;;;;17.22;nan;100249.41;5054014;28;20483;-68
2022/06/06 02:09:20;;;;;;;13.38;6.15;;;;;;;;;;5042325;28;20037;-68
2022/06/06 02:11:45;;;;;;;12.07;5.83;;;;;;;;;;5051857;28;20056;-69
2022/06/06 02:14:11;;;;;;;10.65;5.97;;;;;;;;;;5033674;28;20278;-68
2022/06/06 02:16:37;;;;;;;6.72;5.15;;;;;;;;;;5044902;28;20040;-68
2022/06/06 02:19:03;;;;;;;9.27;5.88;;;;;;;17.11;nan;100220.44;5051601;28;20029;-69
2022/06/06 02:21:28;;;;;;;7.25;5.30;;;;;;;;;;5051961;28;20043;-68
2022/06/06 02:23:54;;;;;;;15.18;5.68;;;;;;;;;;5051962;28;20037;-68
2022/06/06 02:26:19;;;;;;;11.17;5.80;;;;;;;;;;5045627;28;20048;-69
2022/06/06 02:28:44;;;;;;;6.73;5.37;;;;;;;;;;5036831;28;20283;-68
2022/06/06 02:31:09;;;;;;;7.50;5.60;;;;;;;;;;5022347;28;20282;-69
2022/06/06 02:33:35;;;;;;;9.53;6.17;;;;;;;;;;5035447;28;20449;-69
2022/06/06 02:36:01;;;;;;;6.43;5.53;;;;;;;;;;5049550;28;20332;-68
2022/06/06 02:38:27;;;;;;;7.53;5.93;;;;;;;;;;5042683;28;20025;-68
2022/06/06 02:40:52;;;;;;;14.75;5.78;;;;;;;;;;5052525;28;20124;-68
2022/06/06 02:43:18;;;;;;;7.95;5.82;;;;;;;;;;5049083;28;20121;-68
2022/06/06 02:45:46;;;;;;;9.55;6.13;;;;;;;;;;5052202;28;20036;-67
2022/06/06 02:48:12;;;;;;;8.82;5.93;;;;;;;;;;5020841;28;20120;-69
2022/06/06 02:50:38;;;;;;;9.38;5.80;;;;;;;;;;5057597;28;20168;-68
2022/06/06 02:53:05;;;;;;;9.52;5.63;;;;;;;;;;5038902;28;20040;-68
2022/06/06 02:55:31;;;;;;;8.85;5.97;;;;;;;;;;5053361;28;20053;-68
2022/06/06 02:57:58;;;;;;;12.40;6.38;;;;;;;;;;5049394;28;20653;-69
2022/06/06 03:00:26;;;;;;;10.07;6.22;;;;;;;16.07;nan;100237.63;5040711;28;20552;-68
2022/06/06 03:02:51;;;;;;;7.97;6.35;;;;;;;;;;5043052;28;20605;-68
2022/06/06 03:05:17;;;;;;;9.30;5.80;;;;;;;;;;5045205;28;20119;-68
2022/06/06 03:08:01;;;;;;;12.80;5.80;;;;;;;;;;5049935;28;20387;-68
2022/06/06 03:10:29;;;;;;;9.85;6.03;;;;;;;;;;5045179;28;20060;-68
2022/06/06 03:13:13;;;;;;;8.93;6.30;;;;;;;;;;5043871;28;20745;-68
2022/06/06 03:21:41;;;;;;;9.30;6.07;;;;;;;;;;4972107;28;19921;-68
2022/06/06 03:24:06;;;;;;;11.67;6.17;;;;;;;;;;4964028;28;20469;-68
2022/06/06 03:26:37;;;;;;;8.87;5.87;;;;;;;;;;4970406;28;20604;-68
2022/06/06 03:29:21;;;;;;;8.45;6.05;;;;;;;;;;4962298;28;20035;-69
2022/06/06 03:31:52;;;;;;;8.15;6.00;;;;;;;;;;4957484;28;20027;-69
2022/06/06 03:34:26;;;;;;;10.80;6.28;;;;;;;;;;4960816;28;20045;-67
2022/06/06 03:36:51;;;;;;;13.82;5.93;;;;;;;;;;4952409;28;20034;-68
2022/06/06 03:39:19;;;;;;;7.50;6.10;;;;;;;;;;4964983;28;20497;-67
2022/06/06 03:41:47;;;;;;;12.07;5.88;;;;;;;;;;4971497;28;20054;-67
2022/06/06 03:44:13;;;;;;;12.85;6.07;;;;;;;;;;4958840;28;20042;-68
2022/06/06 03:46:43;;;;;;;7.90;5.63;;;;;;;;;;4960327;28;20039;-68
2022/06/06 03:49:39;;;;;;;7.93;5.50;;;;;;;;;;4959698;28;20085;-70
2022/06/06 03:52:24;;;;;;;6.25;5.32;;;;;;;;;;4975456;28;20047;-71
2022/06/06 03:54:50;;;;;;;7.45;5.18;;;;;;;;;;5044551;28;20078;-70
2022/06/06 03:57:15;;;;;;;11.00;5.88;;;;;;;;;;5036644;28;20119;-69
2022/06/06 03:59:41;;;;;;;11.55;5.25;;;;;;;;;;5036881;28;20044;-70
2022/06/06 04:02:09;;;;;;;10.30;6.03;;;;;;;;;;5026114;28;20033;-70
2022/06/06 04:04:34;;;;;;;8.18;5.55;;;;;;;;;;5039573;28;20041;-69
2022/06/06 04:07:00;;;;;;;6.88;5.13;;;;;;;;;;5052328;28;20512;-67
2022/06/06 04:09:28;;;;;;;7.53;5.55;;;;;;;;;;5047744;28;20044;-67
2022/06/06 04:11:59;;;;;;;6.88;4.88;;;;;;;;;;5016994;28;20037;-67
2022/06/06 04:14:38;;;;;;;7.45;5.25;;;;;;;;;;5053359;28;20045;-67
2022/06/06 04:17:10;;;;;;;9.95;5.28;;;;;;;;;;5048937;28;20163;-68
2022/06/06 04:19:43;;;;;;;6.57;4.93;;;;;;;;;;5049735;28;20033;-68
2022/06/06 04:22:18;;;;;;;7.88;4.95;;;;;;;;;;5045339;28;20037;-69
2022/06/06 04:24:50;;;;;;;5.53;4.93;;;;;;;;;;5031935;28;20032;-67
2022/06/06 04:27:33;;;;;;;6.43;4.75;;;;;;;;;;5047711;28;20107;-67
2022/06/06 04:30:04;;;;;;;7.43;5.32;;;;;;;;;;5040040;28;20036;-68
2022/06/06 04:32:57;;;;;;;8.80;5.20;;;;;;;18.08;nan;100278.50;5037320;28;20120;-69
2022/06/06 04:35:32;;;;;;;8.60;4.55;;;;;;;;;;5026925;28;20049;-69
2022/06/06 04:38:32;;;;;;;5.55;4.25;;;;;;;18.28;nan;100254.34;5048890;28;20120;-67
2022/06/06 04:41:19;;;;;;;7.85;4.57;;;;;;;18.38;nan;100282.78;4979679;28;20034;-68
2022/06/06 04:43:56;;;;;;;6.85;4.22;;;;;;;18.51;nan;100265.38;4988539;28;20041;-68
2022/06/06 04:46:37;;;;;;;11.85;4.10;;;;;;;18.62;nan;100266.84;4980667;28;20126;-69
2022/06/06 04:49:03;;;;;;;11.57;4.50;;;;;;;18.70;nan;100263.56;4982219;28;20042;-69
2022/06/06 04:51:31;;;;;;;4.97;4.20;;;;;;;18.79;nan;100303.78;4974350;28;20035;-69
2022/06/06 04:53:57;;;;;;;9.15;4.25;;;;;;;18.86;nan;100248.22;5004618;28;20026;-68
2022/06/06 04:56:24;;;;;;;4.32;3.90;;;;;;;18.96;nan;100276.66;4989405;28;20137;-68
2022/06/06 04:58:51;;;;;;;5.45;4.68;;;;;;;;;;4989096;28;20034;-69
2022/06/06 05:01:17;;;;;;;4.90;4.07;;;;;;;19.15;nan;100268.72;4979933;28;20125;-68
2022/06/06 05:03:43;;;;;;;6.32;3.80;;;;;;;19.23;nan;100276.09;4989515;28;20133;-68
2022/06/06 05:06:17;;;;;;;4.88;3.90;;;;;;;19.33;nan;100283.97;4989398;28;20100;-67
2022/06/06 05:09:04;;;;;;;6.97;4.18;;;;;;;19.42;nan;100292.16;4987033;28;22294;-71
2022/06/06 05:11:53;;;;;;;6.03;3.78;;;;;;;19.45;nan;100258.75;4982817;28;20042;-68
2022/06/06 05:14:37;;;;;;;9.25;4.30;;;;;;;19.51;nan;100276.28;5002638;28;20076;-69
2022/06/06 05:17:27;;;;;;;5.47;4.22;;;;;;;19.53;nan;100268.78;5053543;28;20059;-69
2022/06/06 05:20:16;;;;;;;9.48;4.60;;;;;;;19.59;nan;100286.34;5041077;28;20055;-69
2022/06/06 05:23:09;;;;;;;6.30;4.00;;;;;;;19.66;nan;100277.97;5044723;28;20029;-69
2022/06/06 05:25:34;;;;;;;5.95;3.50;;;;;;;19.70;nan;100273.66;5038236;28;20772;-68
2022/06/06 05:28:14;;;;;;;5.72;4.00;;;;;;;19.72;nan;100274.16;5034222;28;20044;-68
2022/06/06 05:31:03;;;;;;;6.72;3.88;;;;;;;19.75;nan;100274.38;5047857;28;20032;-69
2022/06/06 05:33:56;;;;;;;7.63;4.07;;;;;;;19.79;nan;100260.44;5035988;28;20120;-69
2022/06/06 05:36:43;;;;;;;4.75;3.67;;;;;;;19.83;nan;100288.19;5027435;28;20520;-70
2022/06/06 05:39:11;;;;;;;6.65;4.10;;;;;;;19.85;nan;100288.66;5039019;28;20033;-68
2022/06/06 05:41:56;;;;;;;13.05;4.25;;;;;;;19.90;nan;100308.09;5030347;28;20037;-68
2022/06/06 05:44:40;;;;;;;5.55;3.85;;;;;;;20.00;nan;100304.50;5035575;28;20045;-71
2022/06/06 05:47:20;;;;;;;5.28;3.97;;;;;;;20.10;nan;100304.34;5046750;28;20368;-69
2022/06/06 05:50:10;;;;;;;6.07;3.83;;;;;;;20.21;nan;100310.34;5044415;28;20041;-70
2022/06/06 05:53:23;;;;;;;5.43;3.90;;;;;;;20.33;nan;100305.31;5036776;28;20112;-70
2022/06/06 05:55:55;;;;;;;4.70;3.60;;;;;;;20.40;nan;100311.09;5033889;28;20038;-70
2022/06/06 05:58:23;;;;;;;4.95;3.47;;;;;;;20.45;nan;100326.25;5031651;28;20503;-71
2022/06/06 06:01:11;;;;;;;5.30;3.80;;;;;;;20.55;nan;100334.13;5033683;28;20079;-70
2022/06/06 06:03:58;;;;;;;8.70;3.58;;;;;;;20.63;nan;100313.16;5043272;28;20039;-71
2022/06/06 06:07:01;;;;;;;7.45;3.97;;;;;;;20.70;nan;100268.06;5042010;28;20107;-70
2022/06/06 06:09:35;;;;;;;6.35;4.13;;;;;;;20.85;nan;100332.00;5019660;28;20040;-70
2022/06/06 06:12:19;;;;;;;6.57;4.07;;;;;;;20.94;nan;100338.28;5034861;28;20072;-70
2022/06/06 06:15:02;;;;;;;6.13;3.92;;;;;;;20.97;nan;100331.53;5041003;28;20063;-69
2022/06/06 06:17:32;;;;;;;9.38;3.90;;;;;;;21.06;nan;100328.97;5020541;28;20128;-67
2022/06/06 06:20:09;;;;;;;5.85;3.88;;;;;;;21.18;nan;100353.38;5023623;28;20427;-68
2022/06/06 06:22:56;;;;;;;6.03;4.13;;;;;;;21.19;nan;100355.75;5046290;28;20098;-68
2022/06/06 06:25:24;;;;;;;6.60;3.83;;;;;;;21.21;nan;100406.34;5049809;28;20044;-70
2022/06/06 06:27:56;;;;;;;7.93;3.95;;;;;;;21.19;nan;100419.22;5034779;28;20120;-70
2022/06/06 06:30:22;;;;;;;8.57;4.03;;;;;;;21.23;nan;100362.09;5035546;28;20033;-67
2022/06/06 06:33:13;;;;;;;6.38;3.70;;;;;;;21.30;nan;100355.56;5029103;28;20360;-70
2022/06/06 06:36:32;;;;;;;6.38;3.58;;;;;;;21.33;nan;100368.34;5052414;28;20379;-69
2022/06/06 06:39:13;;;;;;;5.45;3.85;;;;;;;21.39;nan;100364.50;4991112;28;20041;-69
2022/06/06 06:41:51;;;;;;;7.55;4.07;;;;;;;21.48;nan;100348.53;4988042;28;20054;-68
2022/06/06 06:44:39;;;;;;;4.15;3.75;;;;;;;21.50;nan;100368.59;4991566;28;20499;-69
2022/06/06 06:47:17;;;;;;;4.30;3.85;;;;;;;21.65;nan;100380.88;4990401;28;20030;-69
2022/06/06 06:49:47;;;;;;;6.10;3.40;;;;;;;21.71;nan;100360.91;4990851;28;20366;-70
2022/06/06 06:52:49;;;;;;;6.40;3.90;;;;;;;21.78;nan;100355.94;4973997;28;20492;-71
2022/06/06 06:55:35;;;;;;;3.92;3.30;;;;;;;21.79;nan;100389.72;4991218;28;20034;-70
2022/06/06 06:58:08;;;;;;;5.47;3.92;;;;;;;21.91;nan;100428.59;4991259;28;20543;-70
2022/06/06 07:00:55;;;;;;;9.43;3.92;;;;;;;22.15;nan;100420.31;4969549;28;20042;-68
2022/06/06 07:09:34;;;;;;;5.05;3.40;;;;;;;22.25;nan;100407.50;4991950;28;20033;-67
2022/06/06 07:12:44;;;;;;;8.50;3.50;;;;;;;22.30;nan;100410.06;5040878;28;20052;-68
2022/06/06 07:15:34;;;;;;;5.78;3.92;;;;;;;22.39;nan;100410.16;5039844;28;20041;-71
2022/06/06 07:18:02;;;;;;;5.28;3.95;;;;;;;22.40;nan;100392.94;5049353;28;20039;-68
2022/06/06 07:20:28;;;;;;;4.68;3.40;;;;;;;22.41;nan;100383.81;5043774;28;20064;-69
2022/06/06 07:23:04;;;;;;;7.38;3.70;;;;;;;22.64;nan;100408.75;5029951;28;20434;-69
2022/06/06 07:25:39;;;;;;;3.95;3.17;;;;;;;22.70;nan;100412.91;5044479;28;20037;-69
2022/06/06 07:28:11;;;;;;;6.05;3.40;;;;;;;22.72;nan;100409.88;5033806;28;20033;-68
2022/06/06 07:30:47;;;;;;;4.68;3.53;;;;;;;22.77;nan;100417.84;5038253;28;20111;-68
2022/06/06 07:33:28;;;;;;;5.10;3.50;;;;;;;22.84;nan;100423.56;5033231;28;20033;-69
2022/06/06 07:36:21;;;;;;;4.88;3.47;;;;;;;22.86;nan;100418.66;5037491;28;20033;-68
2022/06/06 07:39:24;;;;;;;6.05;3.60;;;;;;;23.01;nan;100433.66;5043899;28;20033;-68
2022/06/06 07:42:00;;;;;;;6.45;3.50;;;;;;;23.10;nan;100434.47;5032965;28;20096;-68
2022/06/06 07:44:50;;;;;;;6.22;3.83;;;;;;;23.23;nan;100440.88;5041885;28;20037;-69
2022/06/06 07:47:37;;;;;;;3.90;3.30;;;;;;;23.33;nan;100437.91;5050448;28;20095;-68
2022/06/06 07:50:10;;;;;;;4.25;3.60;;;;;;;23.44;nan;100445.69;5042121;28;20964;-68
2022/06/06 07:52:52;;;;;;;8.07;4.05;;;;;;;23.45;nan;100437.31;5038657;28;20494;-68
2022/06/06 07:55:32;;;;;;;10.95;3.60;;;;;;;23.64;nan;100455.13;5030728;28;20103;-69
2022/06/06 07:58:16;;;;;;;7.00;3.50;;;;;;;23.69;nan;100468.41;5038540;28;20036;-68
2022/06/06 08:00:48;;;;;;;8.45;3.50;;;;;;;23.69;nan;100454.97;5037649;28;20039;-68
2022/06/06 08:03:51;;;;;;;6.95;3.88;;;;;;;23.77;nan;100471.13;5046528;28;20025;-68
2022/06/06 08:06:35;;;;;;;5.50;3.58;;;;;;;23.86;nan;100470.38;4985052;28;20034;-68
2022/06/06 08:09:01;;;;;;;7.47;3.90;;;;;;;23.95;nan;100469.31;4985694;28;20186;-67
2022/06/06 08:11:29;;;;;;;5.80;3.22;;;;;;;24.03;nan;100466.94;4987844;28;20058;-67
2022/06/06 08:14:33;;;;;;;7.55;4.13;;;;;;;24.05;nan;100460.16;4985066;28;20038;-68
2022/06/06 08:17:10;;;;;;;7.38;3.78;;;;;;;24.21;nan;100465.88;4982702;28;20491;-70
2022/06/06 08:19:35;;;;;;;8.00;3.65;;;;;;;24.29;nan;100464.28;4981092;28;20408;-69
2022/06/06 08:22:02;;;;;;;4.43;3.85;;;;;;;24.26;nan;100448.78;4988519;28;20096;-68
2022/06/06 08:24:32;;;;;;;8.43;4.20;;;;;;;24.35;nan;100453.06;4977724;28;20042;-68
2022/06/06 08:27:01;;;;;;;7.32;3.65;;;;;;;24.36;nan;100441.19;4990133;28;20099;-68
2022/06/06 08:29:28;;;;;;;4.55;3.80;;;;;;;24.42;nan;100441.81;4987996;28;20038;-68
2022/06/06 08:31:54;;;;;;;4.57;3.65;;;;;;;24.45;nan;100435.03;4989942;28;20070;-68
2022/06/06 08:34:21;;;;;;;8.35;3.75;;;;;;;24.59;nan;100441.03;4972562;28;20046;-69
2022/06/06 08:36:52;;;;;;;7.13;4.15;;;;;;;24.69;nan;100435.34;4983551;28;20074;-69
2022/06/06 08:39:25;;;;;;;3.90;3.10;;;;;;;24.80;nan;100439.28;4977770;28;20558;-68
2022/06/06 08:42:08;;;;;;;6.70;3.40;;;;;;;24.94;nan;100435.59;4981966;28;20396;-66
2022/06/06 08:44:51;;;;;;;4.80;3.50;;;;;;;25.07;nan;100440.03;5040244;28;20098;-68
2022/06/06 08:47:42;;;;;;;7.00;3.20;;;;;;;25.07;nan;100429.25;5023804;28;20399;-68
2022/06/06 08:50:46;;;;;;;7.78;3.15;;;;;;;25.17;nan;100433.50;5042149;28;20119;-69
2022/06/06 08:53:49;;;;;;;4.07;3.58;;;;;;;25.22;nan;100436.03;5039421;28;20058;-69
2022/06/06 08:56:44;;;;;;;5.63;3.80;;;;;;;25.27;nan;100432.38;5042975;28;20053;-69
2022/06/06 08:59:50;;;;;;;6.95;3.40;;;;;;;25.31;nan;100439.50;5037357;28;20339;-70
2022/06/06 09:02:25;;;;;;;17.00;3.70;;;;;;;25.35;nan;100435.03;5034261;28;20112;-68
2022/06/06 09:05:27;;;;;;;7.50;3.50;;;;;;;25.35;nan;100429.63;5048648;28;20190;-67
2022/06/06 09:08:29;;;;;;;3.67;3.00;;;;;;;25.33;nan;100429.19;5040400;28;20037;-67
2022/06/06 09:10:55;;;;;;;6.75;3.78;;;;;;;25.45;nan;100434.69;5051559;28;20399;-68
2022/06/06 09:13:41;;;;;;;6.28;3.45;;;;;;;25.47;nan;100427.03;5057302;28;20037;-67
2022/06/06 09:16:26;;;;;;;7.45;3.83;;;;;;;25.52;nan;100417.19;5033050;28;20383;-68
2022/06/06 09:19:10;;;;;;;3.42;2.80;;;;;;;25.56;nan;100405.44;5042156;28;20067;-69
2022/06/06 09:21:52;;;;;;;9.63;3.63;;;;;;;25.59;nan;100401.28;5050128;28;20043;-67
2022/06/06 09:24:46;;;;;;;9.50;3.10;;;;;;;25.60;nan;100394.81;5062782;28;20082;-68
2022/06/06 09:27:20;;;;;;;4.13;3.33;;;;;;;25.53;nan;100392.63;5051573;28;20069;-69
2022/06/06 09:30:23;;;;;;;8.55;3.33;;;;;;;25.52;nan;100391.00;5053407;28;20036;-68
2022/06/06 09:33:10;;;;;;;7.35;3.03;;;;;;;25.60;nan;100394.81;4968819;28;20231;-69
2022/06/06 09:35:57;;;;;;;2.97;2.75;;;;;;;25.66;nan;100388.09;4972971;28;20069;-68
2022/06/06 09:38:41;;;;;;;4.28;3.13;;;;;;;25.64;nan;100368.75;4969880;28;20393;-68
2022/06/06 09:41:25;;;;;;;7.22;3.22;;;;;;;25.67;nan;100385.06;4969367;28;20035;-68
2022/06/06 09:44:09;;;;;;;5.82;3.47;;;;;;;25.76;nan;100376.91;4954003;28;20035;-68
2022/06/06 09:46:59;;;;;;;3.45;3.15;;;;;;;25.83;nan;100381.78;4950597;28;20441;-68
2022/06/06 09:49:44;;;;;;;5.28;2.80;;;;;;;25.89;nan;100384.00;4983305;28;20030;-69
2022/06/06 09:52:28;;;;;;;4.45;3.05;;;;;;;25.96;nan;100383.47;4953361;28;20492;-68
2022/06/06 10:01:02;;;;;;;3.97;2.83;;;;;;;25.98;nan;100380.44;4967740;28;20041;-68
2022/06/06 10:03:45;;;;;;;4.57;3.00;;;;;;;25.98;nan;100362.34;4985147;28;20033;-68
2022/06/06 10:06:40;;;;;;;3.88;3.05;;;;;;;26.12;nan;100372.84;5052277;28;20277;-67
2022/06/06 10:09:15;;;;;;;5.88;2.70;;;;;;;26.27;nan;100379.59;5048914;28;20060;-68
2022/06/06 10:12:06;;;;;;;4.93;2.60;;;;;;;26.34;nan;100373.63;5043617;28;20044;-68
2022/06/06 10:14:48;;;;;;;3.40;2.58;;;;;;;26.33;nan;100374.75;5033146;28;20124;-68
2022/06/06 10:17:16;;;;;;;3.35;2.40;;;;;;;26.38;nan;100378.03;5042263;28;20025;-69
2022/06/06 10:19:49;;;;;;;6.07;2.53;;;;;;;26.38;nan;100378.03;5038659;28;20037;-68
2022/06/06 10:22:39;;;;;;;3.08;2.53;;;;;;;26.41;nan;100381.97;5041728;28;20030;-69
2022/06/06 10:25:39;;;;;;;3.70;2.30;;;;;;;26.42;nan;100395.16;5037963;28;20481;-68
2022/06/06 10:28:40;;;;;;;3.10;2.30;;;;;;;26.38;nan;100388.06;5036396;28;20483;-71
2022/06/06 10:31:56;;;;;;;;;;;;;;;;;;;;;
2022/06/06 10:34:43;;;;;;;2.38;2.05;;;;;;;26.34;nan;100401.44;5026988;28;20781;-71
2022/06/06 10:37:56;;;;;;;;;;;;;;;;;;;;;
2022/06/06 10:41:17;;;;;;;2.55;1.85;;;;;;;26.58;nan;100402.66;5042347;28;20481;-72
2022/06/06 10:44:22;;;;;;;2.58;1.60;;;;;;;26.65;nan;100395.63;5005932;28;20038;-70
2022/06/06 10:47:32;;;;;;;2.55;1.80;;;;;;;26.89;nan;100415.72;5007889;28;20038;-69
2022/06/06 10:50:14;;;;;;;3.03;1.60;;;;;;;26.97;nan;100404.00;4970722;28;20092;-69
2022/06/06 10:52:58;;;;;;;2.88;1.80;;;;;;;27.01;nan;100404.09;4997943;28;20034;-70
2022/06/06 10:55:32;;;;;;;2.50;1.80;;;;;;;27.01;nan;100399.53;5006442;28;20159;-70
2022/06/06 10:58:03;;;;;;;3.83;1.80;;;;;;;27.10;nan;100402.09;5004399;28;20467;-68
2022/06/06 11:00:50;;;;;;;2.92;2.00;;;;;;;27.14;nan;100397.59;5001712;28;20058;-69
2022/06/06 11:03:39;;;;;;;5.07;2.17;;;;;;;27.16;nan;100406.16;5009742;28;20037;-69
2022/06/06 11:06:42;;;;;;;4.43;2.00;;;;;;;27.24;nan;100397.19;4998650;28;20040;-70
2022/06/06 11:10:02;;;;;;;4.10;1.98;;;;;;;27.33;nan;100395.16;5031039;28;20488;-69
2022/06/06 11:12:28;;;;;;;2.75;2.20;;;;;;;27.45;nan;100396.28;4987387;28;20884;-69
2022/06/06 11:14:54;;;;;;;5.68;2.13;;;;;;;27.39;nan;100376.78;4968969;28;20042;-70
2022/06/06 11:17:57;;;;;;;2.00;1.77;;;;;;;27.57;nan;100383.53;4975108;28;20041;-70
2022/06/06 11:20:43;;;;;;;5.68;1.80;;;;;;;27.66;nan;100386.13;4973262;28;20037;-69
2022/06/06 11:23:30;;;;;;;4.97;1.80;;;;;;;27.66;nan;100391.53;4973420;28;20034;-68
2022/06/06 11:26:13;;;;;;;6.20;1.92;;;;;;;27.69;nan;100382.75;4969701;28;20069;-69
2022/06/06 11:28:49;;;;;;;3.58;2.15;;;;;;;27.56;nan;100376.56;4984488;28;20563;-69
2022/06/06 11:31:26;;;;;;;4.32;2.03;;;;;;;27.73;nan;100386.34;4979054;28;20041;-70
2022/06/06 11:34:16;;;;;;;2.88;2.00;;;;;;;27.85;nan;100388.28;4973185;28;20522;-70
2022/06/06 11:37:00;;;;;;;2.10;1.90;;;;;;;27.88;nan;100384.09;4978253;28;20045;-70
2022/06/06 11:39:52;;;;;;;3.03;1.88;;;;;;;27.91;nan;100386.88;4965826;28;20245;-70
2022/06/06 11:42:20;;;;;;;4.35;1.80;;;;;;;27.99;nan;100390.56;4986507;28;20156;-70
2022/06/06 11:45:07;;;;;;;2.25;1.80;;;;;;;28.09;nan;100379.28;4987526;28;20069;-70
2022/06/06 11:47:57;;;;;;;3.70;1.90;;;;;;;28.16;nan;100376.78;4987125;28;20086;-68
2022/06/06 11:50:34;;;;;;;3.55;1.85;;;;;;;28.25;nan;100368.50;5020034;28;20610;-69
2022/06/06 11:53:05;;;;;;;5.90;1.80;;;;;;;28.39;nan;100365.38;5038991;28;20037;-70
2022/06/06 11:55:51;;;;;;;3.40;1.60;;;;;;;28.35;nan;100350.97;5052335;28;20605;-69
2022/06/06 11:58:44;;;;;;;2.55;1.58;;;;;;;28.54;nan;100361.97;5047743;28;20052;-69
2022/06/06 12:01:36;;;;;;;4.47;1.50;;;;;;;28.64;nan;100363.38;5052236;28;20017;-70
2022/06/06 12:04:37;;;;;;;1.50;1.40;;;;;;;28.61;nan;100364.88;5025895;28;20029;-70
2022/06/06 12:07:33;;;;;;;3.00;1.60;;;;;;;28.68;nan;100366.16;5060302;28;20044;-70
2022/06/06 12:10:17;;;;;;;2.67;1.70;;;;;;;28.77;nan;100361.38;5052227;28;20032;-70
2022/06/06 12:13:02;;;;;;;2.05;1.38;;;;;;;28.77;nan;100364.09;5048727;28;20059;-69
2022/06/06 12:15:54;;;;;;;2.70;1.48;;;;;;;28.81;nan;100360.31;5068121;28;21157;-69
2022/06/06 12:18:41;;;;;;;3.38;1.50;;;;;;;28.83;nan;100349.94;5049070;28;20511;-69
2022/06/06 12:21:15;;;;;;;2.25;1.58;;;;;;;28.87;nan;100358.13;5061281;28;20037;-70
2022/06/06 12:23:50;;;;;;;1.35;1.23;;;;;;;28.92;nan;100363.28;5051550;28;20031;-69
2022/06/06 12:26:34;;;;;;;3.90;1.40;;;;;;;29.02;nan;100359.25;5045244;28;20047;-69
2022/06/06 12:29:28;;;;;;;12.52;1.33;;;;;;;29.12;nan;100355.28;5049870;28;20040;-69
2022/06/06 12:32:19;;;;;;;1.52;1.30;;;;;;;29.15;nan;100355.34;5032047;28;20022;-70
2022/06/06 12:35:00;;;;;;;2.83;1.30;;;;;;;29.19;nan;100344.59;5050293;28;20045;-69
2022/06/06 12:37:36;;;;;;;1.75;1.60;;;;;;;29.23;nan;100343.53;5051502;28;20044;-69
2022/06/06 12:40:32;;;;;;;6.35;1.60;;;;;;;29.22;nan;100333.81;5034058;28;20048;-69
2022/06/06 12:43:26;;;;;;;3.38;1.65;;;;;;;29.16;nan;100331.72;5051162;28;20045;-70
2022/06/06 12:46:16;;;;;;;3.42;1.60;;;;;;;29.22;nan;100327.63;5017793;28;20040;-69
2022/06/06 12:49:13;;;;;;;5.68;1.50;;;;;;;29.26;nan;100328.50;5029915;28;20026;-67
2022/06/06 12:51:47;;;;;;;1.70;1.60;;;;;;;29.35;nan;100331.00;5014605;28;20585;-69
2022/06/06 12:58:13;;;;;;;4.80;1.40;;;;;;;29.25;nan;100316.84;5029895;28;20051;-70
2022/06/06 13:03:48;;;;;;;4.82;1.50;;;;;;;29.35;nan;100326.34;4987175;28;20042;-69
2022/06/06 13:06:22;;;;;;;4.75;1.63;;;;;;;29.43;nan;100324.59;4989118;28;20030;-70
2022/06/06 13:09:29;;;;;;;4.38;1.83;;;;;;;29.42;nan;100320.31;4984792;28;20058;-68
2022/06/06 13:12:06;;;;;;;4.75;1.45;;;;;;;29.40;nan;100325.28;4971969;28;20046;-67
2022/06/06 13:14:37;;;;;;;5.97;1.77;;;;;;;29.34;nan;100324.00;4970025;28;20043;-69
2022/06/06 13:17:17;;;;;;;6.70;2.15;;;;;;;29.31;nan;100320.09;4987492;28;20042;-69
2022/06/06 13:20:04;;;;;;;2.70;1.48;;;;;;;29.36;nan;100321.75;4988688;28;20098;-69
2022/06/06 13:22:47;;;;;;;3.83;1.60;;;;;;;29.47;nan;100328.97;4982592;28;20427;-69
2022/06/06 13:25:42;;;;;;;3.00;1.52;;;;;;;29.47;nan;100328.16;4983224;28;20034;-68
2022/06/06 13:28:25;;;;;;;2.13;1.70;;;;;;;29.55;nan;100323.69;4981936;28;20160;-68
2022/06/06 13:30:59;;;;;;;3.78;1.90;;;;;;;29.58;nan;100322.97;4989000;28;20581;-69
2022/06/06 13:33:46;;;;;;;4.18;1.50;;;;;;;29.61;nan;100325.75;4991191;28;20034;-69
2022/06/06 13:36:27;;;;;;;4.32;1.60;;;;;;;29.62;nan;100318.41;4992656;28;20037;-69
2022/06/06 13:39:18;;;;;;;3.55;1.88;;;;;;;29.61;nan;100325.75;5047232;28;20376;-68
2022/06/06 13:41:54;;;;;;;4.22;1.90;;;;;;;29.60;nan;100328.84;5043104;28;20028;-70